Latest Weather Observations for Point Stuart

IDD60901

Issued at 8:11 pm CST Wednesday 2 September 2015 (issued every 10 minutes, with the page automatically refreshed every 10 minutes)

About weather observations | Map of Darwin area stations | Latest observations for Darwin area | Other Formats
Station Details ID: 014254 Name: POINT STUART Lat: -12.24 Lon: 131.88 Height: 1.0 m
Data from the previous 72 hours. | See also: Recent months at Point Stuart
Date/Time
CST
Tmp

°C
App
Tmp
°C
Dew
Point
°C
Rel
Hum
%
Delta-T

°C
Wind Press
QNH
hPa
Press
MSL
hPa
Rain
since
9 am
mm
Dir
 
Spd
km/h
Gust
km/h
Spd
kts
Gust
kts
02/08:00pm 25.7 26.6 18.4 64 4.6 NW 11 13 6 7 1013.0 - 0.0
02/07:30pm 26.0 26.9 17.6 60 5.3 NNW 9 13 5 7 1012.6 - 0.0
02/07:00pm 26.8 27.4 17.6 57 5.8 NNW 11 15 6 8 1012.2 - 0.0
02/06:30pm 28.2 28.3 17.4 52 6.8 NW 13 15 7 8 1011.7 - 0.0
02/06:00pm 29.8 29.6 17.6 48 7.8 NW 15 20 8 11 1011.5 1011.5 0.0
02/05:30pm 29.6 29.6 17.1 47 7.9 NNW 13 20 7 11 1011.3 - 0.0
02/05:00pm 29.8 29.7 17.9 48 7.6 NNW 15 24 8 13 1011.2 - 0.0
02/04:30pm 30.6 30.1 17.7 46 8.2 NNW 17 26 9 14 1011.2 - 0.0
02/04:00pm 31.6 31.0 18.9 47 8.3 NNW 20 28 11 15 1011.3 - 0.0
02/03:30pm 31.0 30.6 18.0 45 8.3 NNW 17 26 9 14 1011.5 - 0.0
02/03:00pm 32.4 31.8 18.9 44 8.8 NNW 20 28 11 15 1011.8 1011.8 0.0
02/02:30pm 33.0 32.7 19.1 43 9.1 NNW 19 30 10 16 1012.2 - 0.0
02/02:00pm 32.8 32.2 18.9 43 9.1 NNW 20 28 11 15 1012.7 - 0.0
02/01:30pm 32.5 32.0 18.7 44 9.0 NNW 19 28 10 15 1013.3 - 0.0
02/01:00pm 33.1 33.0 19.6 45 8.9 NNW 19 26 10 14 1013.8 - 0.0
02/12:30pm 32.3 32.2 19.5 46 8.4 NNW 19 28 10 15 1014.3 - 0.0
02/12:00pm 32.2 32.5 19.5 47 8.3 NNW 17 24 9 13 1015.0 1015.0 0.0
02/11:30am 32.4 32.7 19.6 46 8.4 NW 17 22 9 12 1015.4 - 0.0
02/11:00am 32.4 32.6 19.3 46 8.6 WNW 17 32 9 17 1015.8 - 0.0
02/10:30am 31.1 31.6 17.4 44 8.7 S 11 20 6 11 1016.0 - 0.0
02/10:00am 30.4 30.3 17.8 46 8.0 SSW 15 24 8 13 1016.2 - 0.0
02/09:30am 29.2 28.8 18.9 53 6.7 SSW 19 26 10 14 1016.1 - 0.0
02/09:00am 27.9 28.9 20.2 63 5.0 SSW 15 19 8 10 1016.2 1016.2 0.0
02/08:30am 25.7 28.9 21.6 78 2.7 S 7 9 4 5 1016.1 - 0.0
02/08:00am 23.1 28.0 23.1 100 0.0 SE 2 6 1 3 1015.8 - 0.0
02/07:30am 21.7 25.1 21.7 100 0.0 ESE 6 7 3 4 1015.7 - 0.0
02/07:00am 20.1 23.5 20.1 100 0.0 S 2 7 1 4 1015.4 - 0.0
02/06:30am 20.1 23.9 20.1 100 0.0 CALM 0 0 0 0 1014.9 - 0.0
02/06:00am 20.7 24.8 20.7 100 0.0 CALM 0 0 0 0 1014.2 1014.2 0.0
02/05:30am 21.1 25.4 21.1 100 0.0 CALM 0 0 0 0 1013.8 - 0.0
02/05:00am 21.3 25.5 21.0 98 0.2 CALM 0 6 0 3 1013.8 - 0.0
02/04:30am 21.8 25.5 21.5 98 0.2 SSW 4 6 2 3 1013.8 - 0.0
02/04:00am 22.0 25.2 21.2 95 0.5 SSW 6 6 3 3 1013.7 - 0.0
02/03:30am 22.2 25.3 21.0 93 0.8 SSW 6 7 3 4 1013.8 - 0.0
02/03:00am 22.5 25.6 21.0 91 1.0 SSW 6 7 3 4 1013.7 1013.7 0.0
02/02:30am 22.9 26.0 21.4 91 1.0 SSW 7 9 4 5 1013.9 - 0.0
02/02:00am 23.1 25.2 21.0 88 1.4 SW 11 13 6 7 1013.8 - 0.0
02/01:30am 23.4 25.5 20.9 86 1.6 WSW 11 11 6 6 1014.0 - 0.0
02/01:00am 23.5 25.4 20.6 84 1.9 WSW 11 13 6 7 1014.1 - 0.0
02/12:30am 24.0 26.3 20.7 82 2.2 SW 9 11 5 6 1014.3 - 0.0
02/12:00am 24.9 27.8 21.0 79 2.6 SW 7 11 4 6 1014.4 1014.4 0.0
 
Date/Time
CST
Tmp

°C
App
Tmp
°C
Dew
Point
°C
Rel
Hum
%
Delta-T

°C
Wind Press
QNH
hPa
Press
MSL
hPa
Rain
since
9 am
mm
Dir
 
Spd
km/h
Gust
km/h
Spd
kts
Gust
kts
01/11:30pm 26.3 27.7 21.9 77 2.9 W 17 20 9 11 1014.1 - 0.0
01/11:00pm 26.4 28.4 21.6 75 3.2 W 13 17 7 9 1014.0 - 0.0
01/10:30pm 26.8 27.6 21.3 72 3.7 WNW 19 24 10 13 1013.8 - 0.0
01/10:00pm 26.7 27.1 21.0 71 3.8 WNW 20 28 11 15 1013.8 - 0.0
01/09:30pm 26.9 26.9 21.0 70 3.9 NW 22 28 12 15 1013.5 - 0.0
01/09:00pm 26.8 27.5 22.2 76 3.1 NW 22 28 12 15 1013.2 1013.2 0.0
01/08:30pm 26.7 27.8 21.9 75 3.2 NW 19 26 10 14 1012.7 - 0.0
01/08:00pm 26.1 27.4 20.9 73 3.4 NNW 15 20 8 11 1012.1 - 0.0
01/07:30pm 26.3 28.1 21.1 73 3.4 NNW 13 19 7 10 1011.7 - 0.0
01/07:00pm 26.6 28.9 20.7 70 3.9 NNW 9 15 5 8 1011.2 - 0.0
01/06:30pm 27.4 29.5 20.2 65 4.7 NNW 9 15 5 8 1011.1 - 0.0
01/06:00pm 28.4 29.7 20.1 60 5.4 NNW 13 20 7 11 1010.9 1010.9 0.0
01/05:30pm 29.4 31.0 20.8 60 5.7 NNW 13 20 7 11 1010.8 - 0.0
01/05:00pm 29.7 30.8 19.7 55 6.5 NNW 13 19 7 10 1010.7 - 0.0
01/04:30pm 31.1 32.3 20.7 54 6.9 NNW 15 22 8 12 1010.6 - 0.0
01/04:00pm 31.4 32.5 20.4 52 7.3 NNW 15 24 8 13 1010.8 - 0.0
01/03:30pm 30.9 32.0 20.5 54 6.9 N 15 24 8 13 1011.2 - 0.0
01/03:00pm 31.0 31.9 20.0 52 7.3 NNW 15 22 8 12 1011.6 1011.6 0.0
01/02:30pm 31.1 32.4 20.1 52 7.3 NNW 13 24 7 13 1012.0 - 0.0
01/02:00pm 31.6 33.7 21.7 55 6.7 NNW 13 20 7 11 1012.5 - 0.0
01/01:30pm 32.0 32.9 19.3 47 8.3 NW 13 20 7 11 1013.0 - 0.0
01/01:00pm 30.8 31.7 19.2 50 7.6 NNW 13 20 7 11 1013.5 - 0.0
01/12:30pm 31.5 32.9 21.1 54 7.0 NNW 15 20 8 11 1013.9 - 0.0
01/12:00pm 30.9 32.4 20.5 54 6.9 NNW 13 20 7 11 1014.3 1014.3 0.0
01/11:30am 31.4 32.8 20.4 52 7.3 NNW 13 20 7 11 1014.6 - 0.0
01/11:00am 30.5 32.1 20.7 55 6.5 NNW 13 20 7 11 1015.1 - 0.0
01/10:30am 29.4 31.3 19.7 56 6.3 N 9 15 5 8 1015.3 - 0.0
01/10:00am 28.3 31.3 20.1 61 5.4 NNW 4 9 2 5 1015.5 - 0.0
01/09:30am 27.7 30.5 20.5 65 4.7 WNW 6 9 3 5 1015.5 - 0.0
01/09:00am 27.7 30.9 21.7 70 4.0 SSE 7 11 4 6 1015.5 1015.5 0.0
01/08:30am 26.4 30.6 23.5 84 2.0 S 7 9 4 5 1015.2 - 0.0
01/08:00am 24.4 30.5 24.4 100 0.0 CALM 0 0 0 0 1014.9 - 0.0
01/07:30am 22.6 27.7 22.6 100 0.0 CALM 0 0 0 0 1014.5 - 0.0
01/07:00am 21.6 26.1 21.6 100 0.0 CALM 0 0 0 0 1014.1 - 0.0
01/06:30am 22.0 25.0 22.0 100 0.0 SSW 9 11 5 6 1013.8 - 0.0
01/06:00am 22.0 25.0 22.0 100 0.0 SSW 9 9 5 5 1013.6 1013.6 0.0
01/05:30am 22.0 25.4 22.0 100 0.0 SSW 7 7 4 4 1013.3 - 0.0
01/05:00am 22.3 26.0 22.3 100 0.0 SSW 6 6 3 3 1013.1 - 0.0
01/04:30am 22.3 25.9 22.3 100 0.0 SSW 7 9 4 5 1013.1 - 0.0
01/04:00am 22.2 25.5 21.9 98 0.2 SSW 7 9 4 5 1013.2 - 0.0
01/03:30am 22.3 25.6 21.8 97 0.3 SW 7 9 4 5 1013.4 - 0.0
01/03:00am 22.4 25.1 21.4 94 0.7 SW 9 11 5 6 1013.4 1013.4 0.0
01/02:30am 22.9 25.8 21.7 93 0.8 SW 9 11 5 6 1013.5 - 0.0
01/02:00am 23.5 25.3 21.8 90 1.1 SW 15 17 8 9 1013.7 - 0.0
01/01:30am 24.2 27.4 21.7 86 1.7 SSW 7 9 4 5 1013.9 - 0.0
01/01:00am 24.6 27.9 21.9 85 1.8 SSW 7 9 4 5 1014.2 - 0.0
01/12:30am 24.9 28.2 21.8 83 2.1 S 7 7 4 4 1014.4 - 0.0
01/12:00am 25.9 29.5 23.0 84 2.0 WNW 9 13 5 7 1014.4 1014.4 0.0
 
Date/Time
CST
Tmp

°C
App
Tmp
°C
Dew
Point
°C
Rel
Hum
%
Delta-T

°C
Wind Press
QNH
hPa
Press
MSL
hPa
Rain
since
9 am
mm
Dir
 
Spd
km/h
Gust
km/h
Spd
kts
Gust
kts
31/11:30pm 26.1 28.7 22.6 81 2.4 WNW 13 15 7 8 1014.3 - 0.0
31/11:00pm 26.5 28.5 22.3 78 2.8 WNW 15 20 8 11 1014.0 - 0.0
31/10:30pm 26.5 27.9 22.8 80 2.5 WNW 20 26 11 14 1013.8 - 0.0
31/10:00pm 26.4 28.3 23.5 84 2.0 NW 19 26 10 14 1013.7 - 0.0
31/09:30pm 26.2 28.3 22.5 80 2.5 NW 15 20 8 11 1013.5 - 0.0
31/09:00pm 26.1 28.4 22.0 78 2.7 NNW 13 17 7 9 1013.3 1013.3 0.0
31/08:30pm 26.2 28.7 21.8 77 2.9 NNW 11 15 6 8 1013.0 - 0.0
31/08:00pm 26.7 29.8 22.1 76 3.1 NNW 9 15 5 8 1012.6 - 0.0
31/07:30pm 26.6 29.8 21.6 74 3.3 N 7 11 4 6 1012.0 - 0.0
31/07:00pm 27.1 30.2 22.1 74 3.4 N 9 13 5 7 1011.7 - 0.0
31/06:30pm 28.1 30.6 21.1 65 4.6 NNW 9 13 5 7 1011.5 - 0.0
31/06:00pm 29.1 30.9 20.3 59 5.8 N 11 19 6 10 1011.4 1011.4 0.0
31/05:30pm 30.3 31.6 20.2 54 6.7 NNW 13 20 7 11 1011.2 - 0.0
31/05:00pm 31.0 31.3 19.7 51 7.4 NNW 17 22 9 12 1011.2 - 0.0
31/04:30pm 31.0 31.6 20.3 53 7.1 NNW 17 26 9 14 1011.2 - 0.0
31/04:00pm 31.9 32.3 19.8 48 8.0 NNW 17 24 9 13 1011.4 - 0.0
31/03:30pm 32.0 33.3 20.9 52 7.4 N 15 22 8 12 1011.8 - 0.0
31/03:00pm 31.0 32.2 20.0 52 7.3 N 13 22 7 12 1012.1 1012.1 0.0
31/02:30pm 30.9 32.0 20.5 54 6.9 N 15 24 8 13 1012.6 - 0.0
31/02:00pm 30.8 31.3 20.1 53 7.1 N 17 24 9 13 1013.1 - 0.0
31/01:30pm 30.5 31.7 20.7 55 6.5 N 15 24 8 13 1013.5 - 0.0
31/01:00pm 30.7 32.3 21.5 58 6.2 N 15 22 8 12 1013.8 - 0.0
31/12:30pm 30.6 31.9 20.2 53 6.9 N 13 22 7 12 1014.3 - 0.0
31/12:00pm 30.1 31.2 20.4 56 6.4 NE 15 20 8 11 1014.8 1014.8 0.0
31/11:30am 30.5 32.2 21.0 57 6.3 NE 13 20 7 11 1015.4 - 0.0
31/11:00am 29.2 31.1 21.4 63 5.2 E 13 19 7 10 1015.9 - 0.0
31/10:30am 29.0 30.8 21.2 62 5.2 NE 13 20 7 11 1016.1 - 0.0
31/10:00am 29.2 31.1 21.4 63 5.2 NE 13 20 7 11 1015.9 - 0.0
31/09:30am 28.0 29.8 21.1 66 4.6 NNE 13 20 7 11 1015.8 - 0.0
31/09:00am 28.0 29.4 21.1 66 4.6 NNE 15 22 8 12 1015.5 1015.5 0.0
31/08:30am 26.9 28.8 21.4 72 3.7 N 13 17 7 9 1015.5 - 0.0
31/08:00am 26.3 29.0 22.2 78 2.8 N 11 17 6 9 1015.1 - 0.0
31/07:30am 24.7 28.8 23.3 92 0.9 NNE 7 13 4 7 1014.9 - 0.0
31/07:00am 22.0 24.7 21.3 96 0.5 NNE 9 11 5 6 1014.7 - 0.0
31/06:30am 21.3 23.8 20.3 94 0.6 NNE 7 9 4 5 1014.5 - 0.0
31/06:00am 21.7 24.4 20.3 92 0.9 NNE 6 7 3 4 1014.1 1014.1 0.0
31/05:30am 21.9 24.5 20.0 89 1.2 NNE 6 7 3 4 1013.9 - 0.0
31/05:00am 23.3 26.3 21.2 88 1.4 NNE 7 9 4 5 1013.9 - 0.0
31/04:30am 22.2 25.2 21.2 94 0.7 NNE 7 11 4 6 1014.0 - 0.0
31/04:00am 21.7 24.5 20.5 93 0.8 NNE 6 7 3 4 1014.2 - 0.0
31/03:30am 21.9 24.7 20.4 91 1.0 NNE 6 7 3 4 1014.3 - 0.0
31/03:00am 22.6 25.9 20.7 89 1.2 NNE 4 6 2 3 1014.3 1014.3 0.0
31/02:30am 23.0 25.8 20.9 88 1.4 NNE 7 9 4 5 1014.7 - 0.0
31/02:00am 23.3 26.3 20.8 86 1.6 N 6 7 3 4 1014.9 - 0.0
31/01:30am 23.6 26.5 21.1 86 1.6 NE 7 9 4 5 1015.1 - 0.0
31/01:00am 23.8 26.3 20.3 81 2.3 NE 7 9 4 5 1015.2 - 0.0
31/12:30am 24.6 26.9 21.3 82 2.2 N 11 15 6 8 1015.3 - 0.0
31/12:00am 24.4 27.4 21.3 83 2.0 NNE 7 11 4 6 1015.5 1015.5 0.0
 
Date/Time
CST
Tmp

°C
App
Tmp
°C
Dew
Point
°C
Rel
Hum
%
Delta-T

°C
Wind Press
QNH
hPa
Press
MSL
hPa
Rain
since
9 am
mm
Dir
 
Spd
km/h
Gust
km/h
Spd
kts
Gust
kts
30/11:30pm 24.2 27.3 21.5 85 1.8 NNE 7 9 4 5 1015.5 - 0.0
30/11:00pm 24.1 27.8 22.2 89 1.3 NNE 6 7 3 4 1015.4 - 0.0
30/10:30pm 24.9 30.0 22.6 87 1.5 CALM 0 0 0 0 1015.1 - 0.0
30/10:00pm 25.5 30.0 23.0 86 1.7 N 4 7 2 4 1014.9 - 0.0
30/09:30pm 25.8 29.8 23.1 85 1.8 NNW 7 9 4 5 1014.4 - 0.0
30/09:00pm 26.2 29.7 23.5 85 1.8 N 11 17 6 9 1014.0 1014.0 0.0
30/08:30pm 26.3 29.5 23.0 82 2.2 N 11 19 6 10 1013.5 - 0.0

Latest Capital City Observations: Canberra | Sydney | Melbourne | Brisbane | Adelaide | Perth | Hobart | Darwin

Other Formats:

Comma delimited format used in spreadsheet applications
http://www.bom.gov.au/fwo/IDD60901/IDD60901.94127.axf

JavaScript Object Notation format (JSON) in row-major order
http://www.bom.gov.au/fwo/IDD60901/IDD60901.94127.json